createdAt,value
2024-05-09T00:00:52.738Z,101464.20
2024-05-09T00:06:15.656Z,101467.40
2024-05-09T00:11:20.310Z,101463.00
2024-05-09T00:16:23.211Z,101459.40
2024-05-09T00:21:25.836Z,101461.80
2024-05-09T00:26:28.641Z,101455.80
2024-05-09T00:31:31.375Z,101455.80
2024-05-09T00:36:34.048Z,101453.60
2024-05-09T00:41:36.960Z,101449.20
2024-05-09T00:46:39.968Z,101454.00
2024-05-09T00:51:42.910Z,101459.20
2024-05-09T00:56:46.731Z,101462.00
2024-05-09T01:01:49.883Z,101456.60
2024-05-09T01:06:52.706Z,101457.40
2024-05-09T01:11:55.475Z,101457.80
2024-05-09T01:16:58.300Z,101458.20
2024-05-09T01:22:01.244Z,101455.20
2024-05-09T01:27:04.302Z,101460.60
2024-05-09T01:32:07.319Z,101461.80
2024-05-09T01:37:10.177Z,101463.60
2024-05-09T01:42:13.211Z,101461.40
2024-05-09T01:47:16.072Z,101459.00
2024-05-09T01:52:18.721Z,101462.40
2024-05-09T01:57:21.725Z,101461.00
2024-05-09T02:02:24.541Z,101454.40
2024-05-09T02:07:27.371Z,101453.40
2024-05-09T02:12:30.085Z,101460.40
2024-05-09T02:17:33.068Z,101468.20
2024-05-09T02:22:35.981Z,101465.20
2024-05-09T02:27:38.651Z,101461.40
2024-05-09T02:32:41.690Z,101458.40
2024-05-09T02:37:44.719Z,101463.60
2024-05-09T02:42:47.630Z,101463.80
2024-05-09T02:47:50.567Z,101467.60
2024-05-09T02:52:53.543Z,101475.80
2024-05-09T02:57:56.258Z,101465.80
2024-05-09T03:02:59.444Z,101471.40
2024-05-09T03:08:02.523Z,101473.20
2024-05-09T03:13:07.712Z,101473.80
2024-05-09T03:18:11.369Z,101475.60
2024-05-09T03:23:14.690Z,101484.20
2024-05-09T03:28:17.354Z,101483.60
2024-05-09T03:33:20.870Z,101484.80
2024-05-09T03:38:24.116Z,101487.00
2024-05-09T03:43:26.888Z,101480.40
2024-05-09T03:48:29.738Z,101479.20
2024-05-09T03:53:32.777Z,101469.40
2024-05-09T03:58:35.593Z,101484.40
2024-05-09T04:03:39.452Z,101480.40
2024-05-09T04:08:42.493Z,101478.00
2024-05-09T04:13:45.427Z,101481.80
2024-05-09T04:18:48.492Z,101487.20
2024-05-09T04:23:51.429Z,101489.20
2024-05-09T04:28:54.104Z,101487.60
2024-05-09T04:33:57.051Z,101483.40
2024-05-09T04:39:00.133Z,101487.00
2024-05-09T04:44:03.110Z,101485.00
2024-05-09T04:49:06.139Z,101492.40
2024-05-09T04:54:15.611Z,101490.80
2024-05-09T04:59:24.731Z,101494.60
2024-05-09T05:04:28.095Z,101496.40
2024-05-09T05:09:31.082Z,101496.20
2024-05-09T05:14:33.900Z,101497.60
2024-05-09T05:19:36.629Z,101496.80
2024-05-09T05:24:39.430Z,101497.80
2024-05-09T05:29:42.214Z,101498.20
2024-05-09T05:34:45.037Z,101488.80
2024-05-09T05:39:47.856Z,101490.20
2024-05-09T05:44:50.655Z,101491.60
2024-05-09T05:49:53.426Z,101489.00
2024-05-09T05:54:56.082Z,101489.40
2024-05-09T05:59:58.844Z,101485.60
2024-05-09T06:05:03.032Z,101491.20
2024-05-09T06:10:11.450Z,101491.20
2024-05-09T06:15:17.006Z,101498.80
2024-05-09T06:20:27.797Z,101490.40
2024-05-09T06:25:38.387Z,101498.60
2024-05-09T06:30:42.682Z,101504.40
2024-05-09T06:35:46.489Z,101488.60
2024-05-09T06:40:49.572Z,101488.40
2024-05-09T06:45:53.030Z,101483.60
2024-05-09T06:50:56.020Z,101479.20
2024-05-09T06:55:58.866Z,101474.60
2024-05-09T07:01:01.765Z,101476.00
2024-05-09T07:06:04.944Z,101470.00
2024-05-09T07:11:07.991Z,101466.80
2024-05-09T07:16:10.772Z,101474.00
2024-05-09T07:21:13.746Z,101467.20
2024-05-09T07:26:17.787Z,101465.20
2024-05-09T07:31:20.592Z,101445.60
2024-05-09T07:36:23.419Z,101442.40
2024-05-09T07:41:26.222Z,101454.00
2024-05-09T07:47:36.846Z,101433.20
2024-05-09T07:53:20.924Z,101434.60
2024-05-09T07:57:14.693Z,101441.20
2024-05-09T08:02:17.650Z,101430.00
2024-05-09T08:07:20.920Z,101420.20
2024-05-09T08:12:23.577Z,101418.60
2024-05-09T08:17:26.383Z,101413.20
2024-05-09T08:22:32.029Z,101410.20
2024-05-09T08:27:34.762Z,101421.40
2024-05-09T08:32:40.411Z,101426.60
2024-05-09T08:37:43.616Z,101428.00
2024-05-09T08:42:52.575Z,101431.80
2024-05-09T08:47:59.363Z,101433.00
2024-05-09T08:53:02.277Z,101426.20
2024-05-09T08:58:07.301Z,101428.00
2024-05-09T09:03:16.535Z,101425.20
2024-05-09T09:08:20.492Z,101415.20
2024-05-09T09:13:23.489Z,101429.60
2024-05-09T09:18:27.948Z,101419.80
2024-05-09T09:23:31.041Z,101418.80
2024-05-09T09:28:37.454Z,101418.20
2024-05-09T09:33:43.707Z,101422.00
2024-05-09T09:38:48.316Z,101421.20
2024-05-09T09:43:53.364Z,101415.40
2024-05-09T09:48:56.616Z,101405.80
2024-05-09T09:54:02.165Z,101390.80
2024-05-09T09:59:07.429Z,101381.20
2024-05-09T10:04:12.740Z,101379.60
2024-05-09T10:09:18.139Z,101379.80
2024-05-09T10:14:21.955Z,101369.20
2024-05-09T10:19:28.493Z,101368.20
2024-05-09T10:25:05.793Z,101366.40
2024-05-09T10:30:14.620Z,101372.40
2024-05-09T10:35:26.596Z,101351.80
2024-05-09T10:40:32.026Z,101356.20
2024-05-09T10:45:52.392Z,101337.60
2024-05-09T10:51:38.598Z,101341.60
2024-05-09T10:56:45.319Z,101340.00
2024-05-09T11:01:50.764Z,101330.40
2024-05-09T11:12:52.169Z,101318.20
2024-05-09T11:18:26.073Z,101311.80
2024-05-09T11:23:30.795Z,101302.20
2024-05-09T11:28:35.557Z,101303.20
2024-05-09T11:33:47.517Z,101298.20
2024-05-09T11:38:54.504Z,101298.20
2024-05-09T11:44:00.162Z,101295.00
2024-05-09T11:49:03.402Z,101282.80
2024-05-09T11:54:06.277Z,101284.40
2024-05-09T11:59:12.026Z,101278.60
2024-05-09T12:04:20.462Z,101273.20
2024-05-09T12:09:28.789Z,101272.60
2024-05-09T12:14:34.555Z,101269.80
2024-05-09T12:20:33.071Z,101268.80
2024-05-09T12:26:04.055Z,101257.60
2024-05-09T12:31:09.292Z,101252.20
2024-05-09T12:36:16.500Z,101249.60
2024-05-09T12:46:53.343Z,101230.60
2024-05-09T12:52:13.066Z,101232.60
2024-05-09T12:57:25.629Z,101220.20
2024-05-09T13:02:29.477Z,101225.60
2024-05-09T13:07:37.701Z,101220.00
2024-05-09T13:12:45.401Z,101219.20
2024-05-09T13:17:48.317Z,101209.80
2024-05-09T13:22:51.290Z,101205.60
2024-05-09T13:28:43.099Z,101204.20
2024-05-09T13:34:00.156Z,101201.40
2024-05-09T13:39:08.456Z,101192.80
2024-05-09T13:44:24.630Z,101190.40
2024-05-09T13:49:41.278Z,101191.00
2024-05-09T13:55:11.102Z,101191.40
2024-05-09T14:00:27.128Z,101181.60
2024-05-09T14:05:39.345Z,101173.40
2024-05-09T14:10:46.934Z,101172.20
2024-05-09T14:15:50.569Z,101168.20
2024-05-09T14:20:53.485Z,101161.00
2024-05-09T14:25:56.569Z,101155.80
2024-05-09T14:31:01.228Z,101152.60
2024-05-09T14:36:04.515Z,101144.00
2024-05-09T14:41:09.551Z,101134.40
2024-05-09T14:46:12.321Z,101135.60
2024-05-09T14:51:16.385Z,101133.00
2024-05-09T14:56:19.111Z,101120.40
2024-05-09T15:01:23.927Z,101119.40
2024-05-09T15:06:26.794Z,101107.20
2024-05-09T15:11:29.665Z,101107.00
2024-05-09T15:16:32.724Z,101093.60
2024-05-09T15:21:35.652Z,101085.00
2024-05-09T15:26:38.574Z,101089.00
2024-05-09T15:31:41.382Z,101075.00
2024-05-09T15:36:47.887Z,101081.00
2024-05-09T15:41:56.401Z,101080.00
2024-05-09T15:46:59.128Z,101075.60
2024-05-09T15:52:01.973Z,101070.80
2024-05-09T15:57:05.452Z,101067.20
2024-05-09T16:02:11.294Z,101066.20
2024-05-09T16:07:14.548Z,101065.20
2024-05-09T16:12:17.280Z,101057.80
2024-05-09T16:17:20.142Z,101056.80
2024-05-09T16:22:23.134Z,101048.60
2024-05-09T16:27:26.558Z,101048.20
2024-05-09T16:32:29.520Z,101044.00
2024-05-09T16:37:32.552Z,101041.80
2024-05-09T16:42:35.296Z,101035.60
2024-05-09T16:47:38.464Z,101040.00
2024-05-09T16:52:41.483Z,101036.60
2024-05-09T16:57:44.428Z,101030.40
2024-05-09T17:02:47.236Z,101038.00
2024-05-09T17:07:50.864Z,101038.80
2024-05-09T17:12:53.596Z,101036.20
2024-05-09T17:17:56.686Z,101032.00
2024-05-09T17:22:59.464Z,101027.40
2024-05-09T17:28:07.139Z,101031.00
2024-05-09T17:33:20.411Z,101025.60
2024-05-09T17:38:23.731Z,101018.00
2024-05-09T17:43:26.629Z,101010.20
2024-05-09T17:48:29.686Z,101003.40
2024-05-09T17:53:32.414Z,101003.80
2024-05-09T17:58:35.389Z,100997.60
2024-05-09T18:03:39.473Z,100996.20
2024-05-09T18:08:42.659Z,100997.40
2024-05-09T18:13:47.251Z,101002.80
2024-05-09T18:18:50.361Z,101002.20
2024-05-09T18:23:55.475Z,100999.80
2024-05-09T18:29:01.950Z,101002.20
2024-05-09T18:34:05.542Z,101005.40
2024-05-09T18:39:08.907Z,100998.20
2024-05-09T18:44:11.685Z,101002.60
2024-05-09T18:49:14.660Z,101006.40
2024-05-09T18:54:17.578Z,101005.00
2024-05-09T18:59:21.045Z,101004.00
2024-05-09T19:04:24.191Z,101003.80
2024-05-09T19:09:27.103Z,101006.20
2024-05-09T19:14:29.925Z,100999.40
2024-05-09T19:19:32.934Z,101000.60
2024-05-09T19:24:35.903Z,101004.00
2024-05-09T19:29:38.649Z,101008.40
2024-05-09T19:34:44.749Z,101005.40
2024-05-09T19:39:47.563Z,101002.80
2024-05-09T19:44:50.436Z,101001.80
2024-05-09T19:49:53.273Z,101000.20
2024-05-09T19:54:55.946Z,101002.40
2024-05-09T19:59:59.000Z,101001.00
2024-05-09T20:05:03.475Z,101000.80
2024-05-09T20:10:10.573Z,100997.80
2024-05-09T20:15:19.190Z,100995.80
2024-05-09T20:20:32.203Z,100993.20
2024-05-09T20:25:41.392Z,100999.40
2024-05-09T20:30:44.283Z,100996.60
2024-05-09T20:35:47.018Z,100993.20
2024-05-09T20:40:49.766Z,100996.20
2024-05-09T20:45:52.514Z,100990.40
2024-05-09T20:50:55.242Z,100996.00
2024-05-09T20:55:57.949Z,100998.00
2024-05-09T21:01:00.766Z,101000.20
2024-05-09T21:06:03.698Z,101005.40
2024-05-09T21:11:07.506Z,100996.40
2024-05-09T21:16:10.293Z,100993.80
2024-05-09T21:21:13.059Z,100995.80
2024-05-09T21:26:17.227Z,100990.20
2024-05-09T21:31:20.008Z,100988.40
2024-05-09T21:36:22.825Z,100992.40
2024-05-09T21:41:25.523Z,100989.00
2024-05-09T21:46:28.376Z,100989.00
2024-05-09T21:51:31.885Z,100995.00
2024-05-09T21:56:34.736Z,100990.00
2024-05-09T22:01:37.709Z,100993.40
2024-05-09T22:06:40.498Z,100998.80
2024-05-09T22:11:43.379Z,100991.80
2024-05-09T22:16:46.226Z,100992.40
2024-05-09T22:21:49.069Z,100987.40
2024-05-09T22:26:53.581Z,100981.60
2024-05-09T22:31:56.320Z,100980.60
2024-05-09T22:36:59.066Z,100975.80
2024-05-09T22:42:01.723Z,100970.20
2024-05-09T22:47:04.624Z,100960.40
2024-05-09T22:52:07.602Z,100964.20
2024-05-09T22:57:10.528Z,100956.00
2024-05-09T23:02:13.443Z,100951.00
2024-05-09T23:07:16.657Z,100952.00
2024-05-09T23:12:19.686Z,100949.20
2024-05-09T23:17:22.435Z,100944.60
2024-05-09T23:22:25.467Z,100947.20
2024-05-09T23:27:28.309Z,100945.80
2024-05-09T23:32:31.091Z,100934.00
2024-05-09T23:37:33.768Z,100934.40
2024-05-09T23:42:36.586Z,100933.20
2024-05-09T23:47:39.458Z,100930.60
2024-05-09T23:52:42.256Z,100923.40
2024-05-09T23:57:45.142Z,100924.20
